Time;durP1;ratioP1;P1;durP2;ratioP2;P2;SDS_P1;SDS_P2;PMS_P1;PMS_P2;Temp;Humidity;BMP_temperature;BMP_pressure;BME280_temperature;BME280_humidity;BME280_pressure;Samples;Min_cycle;Max_cycle;Signal;HPM_P1;HPM_P2
2022/03/03 00:02:25;;;;;;;15.35;7.28;;;-1.60;99.90;;;;;;4992944;28;20577;-67
2022/03/03 00:04:52;;;;;;;21.48;7.38;;;-1.70;99.90;;;;;;5009414;28;20046;-64
2022/03/03 00:07:19;;;;;;;23.23;7.57;;;-1.70;99.90;;;;;;5003470;28;20157;-69
2022/03/03 00:09:46;;;;;;;21.20;7.15;;;-1.70;99.90;;;;;;5005983;28;20074;-63
2022/03/03 00:12:13;;;;;;;14.48;7.43;;;-1.70;99.90;;;;;;5002817;28;20057;-65
2022/03/03 00:14:40;;;;;;;22.77;7.53;;;-1.80;99.90;;;;;;5004933;28;20112;-66
2022/03/03 00:17:07;;;;;;;21.92;7.63;;;-1.80;99.90;;;;;;5006625;28;20120;-64
2022/03/03 00:19:34;;;;;;;14.82;6.28;;;-1.80;99.90;;;;;;4992313;28;20058;-63
2022/03/03 00:22:01;;;;;;;16.58;6.38;;;-1.80;99.90;;;;;;4986488;28;20508;-69
2022/03/03 00:24:28;;;;;;;24.08;6.22;;;-1.80;99.90;;;;;;4983351;28;20169;-64
2022/03/03 00:26:55;;;;;;;12.02;6.15;;;-1.80;99.90;;;;;;4986997;28;20439;-65
2022/03/03 00:29:22;;;;;;;12.43;6.78;;;-1.80;99.90;;;;;;4983322;28;20074;-64
2022/03/03 00:31:49;;;;;;;19.55;6.30;;;-1.90;99.90;;;;;;4986508;28;20149;-68
2022/03/03 00:34:16;;;;;;;8.48;5.65;;;-2.00;99.90;;;;;;4982927;28;20065;-63
2022/03/03 00:36:43;;;;;;;16.08;6.68;;;-2.00;99.90;;;;;;4987015;28;20445;-68
2022/03/03 00:39:10;;;;;;;16.15;5.82;;;-2.00;99.90;;;;;;4983062;28;20104;-64
2022/03/03 00:41:37;;;;;;;13.95;4.75;;;-2.00;99.90;;;;;;4986752;28;20109;-65
2022/03/03 00:44:06;;;;;;;14.27;5.32;;;-1.90;99.90;;;;;;4982484;28;20060;-64
2022/03/03 00:46:33;;;;;;;11.80;5.88;;;-1.90;99.90;;;;;;4986874;28;20047;-66
2022/03/03 00:49:00;;;;;;;15.73;5.78;;;-1.90;99.90;;;;;;4984630;28;20065;-66
2022/03/03 00:51:27;;;;;;;10.02;6.00;;;-1.90;99.90;;;;;;4985925;28;20141;-67
2022/03/03 00:53:55;;;;;;;11.85;7.20;;;-2.00;99.90;;;;;;4985493;28;20129;-62
2022/03/03 00:56:22;;;;;;;10.05;5.18;;;-2.00;99.90;;;;;;4984404;28;20165;-63
2022/03/03 00:58:49;;;;;;;18.48;5.32;;;-2.00;99.90;;;;;;4984473;28;20247;-67
2022/03/03 01:01:16;;;;;;;10.57;4.22;;;-2.00;99.90;;;;;;4985887;28;20094;-63
2022/03/03 01:03:44;;;;;;;7.35;4.55;;;-2.10;99.90;;;;;;4985618;28;20412;-64
2022/03/03 01:06:11;;;;;;;13.80;4.28;;;-2.10;99.90;;;;;;4983370;28;20042;-63
2022/03/03 01:08:38;;;;;;;9.30;4.18;;;-1.90;99.90;;;;;;4985714;28;20038;-63
2022/03/03 01:11:06;;;;;;;5.85;3.45;;;-1.70;99.90;;;;;;4985335;28;20133;-63
2022/03/03 01:13:34;;;;;;;10.20;4.60;;;-1.50;99.90;;;;;;4985410;28;20050;-67
2022/03/03 01:16:01;;;;;;;11.77;5.38;;;-1.50;99.90;;;;;;4983852;28;20546;-63
2022/03/03 01:18:28;;;;;;;11.65;5.53;;;-1.50;99.90;;;;;;4983836;28;20050;-63
2022/03/03 01:20:57;;;;;;;8.57;5.10;;;-1.50;99.90;;;;;;4984707;28;20058;-65
2022/03/03 01:23:25;;;;;;;7.20;3.28;;;-1.60;99.90;;;;;;4984920;28;20051;-63
2022/03/03 01:25:52;;;;;;;12.43;4.47;;;-1.60;99.90;;;;;;4985793;28;20185;-62
2022/03/03 01:28:19;;;;;;;8.15;3.33;;;-1.60;99.90;;;;;;4982494;28;20154;-68
2022/03/03 01:30:46;;;;;;;12.15;5.80;;;-1.60;99.90;;;;;;4984826;28;20129;-68
2022/03/03 01:33:13;;;;;;;12.38;4.78;;;-1.60;99.90;;;;;;4980859;28;20046;-63
2022/03/03 01:35:41;;;;;;;9.05;5.28;;;-1.70;99.90;;;;;;4985171;28;20161;-64
2022/03/03 01:38:08;;;;;;;7.68;3.95;;;-1.80;99.90;;;;;;4982324;28;20074;-65
2022/03/03 01:40:36;;;;;;;11.13;4.53;;;-1.80;99.90;;;;;;4985723;28;20085;-63
2022/03/03 01:43:04;;;;;;;8.27;5.25;;;-1.90;99.90;;;;;;4923306;28;20330;-64
2022/03/03 01:45:39;;;;;;;7.85;3.28;;;-1.90;99.90;;;;;;1557027;28;10023833;-63
2022/03/03 01:48:06;;;;;;;7.63;4.13;;;-1.90;99.90;;;;;;3949183;28;10001382;-64
2022/03/03 01:50:33;;;;;;;6.32;3.47;;;-1.70;99.90;;;;;;4985348;28;20050;-66
2022/03/03 01:53:00;;;;;;;8.02;3.28;;;-1.50;99.90;;;;;;4982504;28;20485;-65
2022/03/03 01:55:27;;;;;;;3.38;2.30;;;-1.30;99.90;;;;;;4985518;28;20057;-63
2022/03/03 01:57:57;;;;;;;5.75;2.22;;;-1.20;99.90;;;;;;4981520;28;20049;-65
2022/03/03 02:00:24;;;;;;;6.25;2.75;;;-1.00;99.90;;;;;;4983714;28;20054;-63
2022/03/03 02:02:51;;;;;;;6.65;3.53;;;-0.80;99.90;;;;;;4983095;28;20066;-63
2022/03/03 02:05:18;;;;;;;9.52;2.30;;;-0.70;99.90;;;;;;4984691;28;20093;-64
2022/03/03 02:07:45;;;;;;;5.50;2.45;;;-0.50;99.90;;;;;;4983069;28;20381;-63
2022/03/03 02:10:12;;;;;;;7.03;2.35;;;-0.20;99.90;;;;;;4982389;28;20046;-62
2022/03/03 02:12:38;;;;;;;10.57;2.38;;;-0.10;99.90;;;;;;4982544;28;20045;-63
2022/03/03 02:15:06;;;;;;;8.30;2.83;;;0.00;99.90;;;;;;4982818;28;20349;-65
2022/03/03 02:17:33;;;;;;;4.75;2.08;;;0.20;99.90;;;;;;4984376;28;20050;-64
2022/03/03 02:20:07;;;;;;;6.80;2.03;;;0.20;99.90;;;;;;4981348;28;20042;-62
2022/03/03 02:22:35;;;;;;;5.45;2.03;;;0.30;99.90;;;;;;4981976;28;20170;-65
2022/03/03 02:25:03;;;;;;;4.50;1.58;;;0.30;99.90;;;;;;4981156;28;20527;-69
2022/03/03 02:27:31;;;;;;;7.03;1.98;;;0.30;99.90;;;;;;4984413;28;20060;-62
2022/03/03 02:29:59;;;;;;;2.40;1.35;;;0.30;99.90;;;;;;4982069;28;20149;-66
2022/03/03 02:32:26;;;;;;;7.47;1.60;;;0.50;99.90;;;;;;4981550;28;20848;-64
2022/03/03 02:34:53;;;;;;;5.07;2.03;;;0.60;99.90;;;;;;4983728;28;20479;-63
2022/03/03 02:37:20;;;;;;;7.57;2.35;;;0.60;99.90;;;;;;4980606;28;20043;-63
2022/03/03 02:39:48;;;;;;;5.70;1.73;;;0.60;99.90;;;;;;4983111;28;20143;-63
2022/03/03 02:42:15;;;;;;;3.95;1.50;;;0.60;99.90;;;;;;4981373;28;20101;-63
2022/03/03 02:44:42;;;;;;;6.38;1.65;;;0.60;99.90;;;;;;4983880;28;20074;-63
2022/03/03 02:47:09;;;;;;;6.10;1.80;;;0.60;99.90;;;;;;4981467;28;20105;-68
2022/03/03 02:49:36;;;;;;;2.88;1.30;;;0.70;99.90;;;;;;4984196;28;20195;-63
2022/03/03 02:52:03;;;;;;;3.08;1.08;;;0.70;99.90;;;;;;4981703;28;20050;-63
2022/03/03 02:54:30;;;;;;;5.82;1.98;;;0.70;99.90;;;;;;4983207;28;20066;-68
2022/03/03 02:59:43;;;;;;;10.43;1.77;;;0.70;99.90;;;;;;4983097;28;20046;-68
2022/03/03 03:02:10;;;;;;;3.35;0.90;;;0.80;99.90;;;;;;4981087;28;20093;-63
2022/03/03 03:04:37;;;;;;;7.35;1.45;;;0.90;99.90;;;;;;4982818;28;20042;-65
2022/03/03 03:07:04;;;;;;;3.38;1.55;;;0.90;99.90;;;;;;4980902;28;20050;-69
2022/03/03 03:09:31;;;;;;;6.32;1.60;;;0.90;99.90;;;;;;4984991;28;20081;-62
2022/03/03 03:11:58;;;;;;;4.35;1.38;;;0.90;99.90;;;;;;4981738;28;20077;-66
2022/03/03 03:14:25;;;;;;;2.65;1.10;;;1.00;99.90;;;;;;4982270;28;20462;-69
2022/03/03 03:16:52;;;;;;;10.25;1.95;;;1.10;99.90;;;;;;4980573;28;20050;-65
2022/03/03 03:19:19;;;;;;;2.45;1.00;;;1.20;99.90;;;;;;4983537;28;20092;-68
2022/03/03 03:21:46;;;;;;;7.25;1.23;;;1.20;99.90;;;;;;4981854;28;20073;-67
2022/03/03 03:24:14;;;;;;;2.20;1.20;;;1.20;99.90;;;;;;4981057;28;20068;-63
2022/03/03 03:26:40;;;;;;;5.35;1.40;;;1.30;99.90;;;;;;4979882;28;20046;-63
2022/03/03 03:29:07;;;;;;;7.05;1.38;;;1.30;99.90;;;;;;4981835;28;20102;-64
2022/03/03 03:31:34;;;;;;;4.05;2.10;;;1.40;99.90;;;;;;4980312;28;20899;-66
2022/03/03 03:34:01;;;;;;;4.45;1.33;;;1.40;99.90;;;;;;4980839;28;20079;-64
2022/03/03 03:36:29;;;;;;;2.30;1.15;;;1.40;99.90;;;;;;4984031;28;20062;-69
2022/03/03 03:38:57;;;;;;;10.45;1.73;;;1.50;99.90;;;;;;4983080;28;20078;-62
2022/03/03 03:41:24;;;;;;;4.97;1.02;;;1.50;99.90;;;;;;4986884;28;20175;-64
2022/03/03 03:43:51;;;;;;;4.45;2.00;;;1.50;99.90;;;;;;4845948;28;21808;-68
2022/03/03 03:46:18;;;;;;;3.70;0.90;;;1.50;99.90;;;;;;340812;28;10023462;-64
2022/03/03 03:48:45;;;;;;;6.13;1.50;;;1.50;99.90;;;;;;5005987;28;20050;-63
2022/03/03 03:51:13;;;;;;;4.88;1.17;;;1.50;99.90;;;;;;5007532;28;20049;-64
2022/03/03 03:53:40;;;;;;;6.38;1.10;;;1.50;99.90;;;;;;5003833;28;20692;-62
2022/03/03 03:56:07;;;;;;;5.03;1.35;;;1.50;99.90;;;;;;5005332;28;20477;-62
2022/03/03 03:58:34;;;;;;;4.80;1.02;;;1.60;99.90;;;;;;5003413;28;20438;-67
2022/03/03 04:01:01;;;;;;;5.45;1.13;;;1.60;99.90;;;;;;5006927;28;20128;-63
2022/03/03 04:03:28;;;;;;;3.70;1.30;;;1.60;99.90;;;;;;5005092;28;20045;-63
2022/03/03 04:05:56;;;;;;;2.65;1.25;;;1.60;99.90;;;;;;5007124;28;20074;-64
2022/03/03 04:08:22;;;;;;;7.75;0.90;;;1.60;99.90;;;;;;5004260;28;20078;-64
2022/03/03 04:10:49;;;;;;;6.03;1.00;;;1.60;99.90;;;;;;5007261;28;20100;-66
2022/03/03 04:13:16;;;;;;;3.03;0.70;;;1.60;99.90;;;;;;5003901;28;20088;-64
2022/03/03 04:15:43;;;;;;;6.57;1.45;;;1.60;99.90;;;;;;5005421;28;20188;-63
2022/03/03 04:18:10;;;;;;;4.43;0.90;;;1.60;99.90;;;;;;5003492;28;20144;-62
2022/03/03 04:20:38;;;;;;;9.50;1.42;;;1.60;99.90;;;;;;5006992;28;20164;-69
2022/03/03 04:23:05;;;;;;;5.97;1.58;;;1.70;99.90;;;;;;5005985;28;20112;-63
2022/03/03 04:25:33;;;;;;;6.45;1.40;;;1.70;99.90;;;;;;5004304;28;20068;-64
2022/03/03 04:28:02;;;;;;;6.20;1.70;;;1.70;99.90;;;;;;5006795;28;20211;-67
2022/03/03 04:30:29;;;;;;;4.43;1.65;;;1.70;99.90;;;;;;4986603;28;20049;-62
2022/03/03 04:32:56;;;;;;;6.40;1.05;;;1.60;99.90;;;;;;5005997;28;20119;-64
2022/03/03 04:35:23;;;;;;;6.65;0.95;;;1.60;99.90;;;;;;5004771;28;20149;-64
2022/03/03 04:37:50;;;;;;;11.20;2.25;;;1.60;99.90;;;;;;5006070;28;20078;-64
2022/03/03 04:40:17;;;;;;;3.17;1.25;;;1.60;99.90;;;;;;5003645;28;20081;-64
2022/03/03 04:42:44;;;;;;;6.93;1.00;;;1.60;99.90;;;;;;4989901;28;20736;-69
2022/03/03 04:45:12;;;;;;;7.32;1.30;;;1.60;99.90;;;;;;4983368;28;20075;-63
2022/03/03 04:47:39;;;;;;;2.92;1.30;;;1.70;99.90;;;;;;4999299;28;20460;-67
2022/03/03 04:50:07;;;;;;;3.08;0.82;;;1.60;99.90;;;;;;5002182;28;20090;-68
2022/03/03 04:52:34;;;;;;;5.28;0.77;;;1.60;99.90;;;;;;5004195;28;20045;-64
2022/03/03 04:55:02;;;;;;;3.50;0.82;;;1.60;99.90;;;;;;5004427;28;20141;-64
2022/03/03 04:57:30;;;;;;;3.80;1.45;;;1.60;99.90;;;;;;5001713;28;20061;-68
2022/03/03 04:59:57;;;;;;;4.38;1.30;;;1.60;99.90;;;;;;5005324;28;20077;-63
2022/03/03 05:02:25;;;;;;;5.60;1.13;;;1.60;99.90;;;;;;5000966;28;20041;-64
2022/03/03 05:04:52;;;;;;;5.10;1.60;;;1.60;99.90;;;;;;5006019;28;20063;-63
2022/03/03 05:07:19;;;;;;;6.15;1.25;;;1.60;99.90;;;;;;5004783;28;20049;-63
2022/03/03 05:09:46;;;;;;;8.10;1.25;;;1.60;99.90;;;;;;5004217;28;20092;-65
2022/03/03 05:12:13;;;;;;;3.05;0.93;;;1.70;99.90;;;;;;5000473;28;20127;-69
2022/03/03 05:14:40;;;;;;;4.28;0.98;;;1.70;99.90;;;;;;5005532;28;20069;-64
2022/03/03 05:17:07;;;;;;;6.53;1.10;;;1.60;99.90;;;;;;5003178;28;20077;-63
2022/03/03 05:19:34;;;;;;;5.03;1.15;;;1.60;99.90;;;;;;4992718;28;20138;-64
2022/03/03 05:22:00;;;;;;;3.92;1.25;;;1.60;99.90;;;;;;4999348;28;20167;-63
2022/03/03 05:24:27;;;;;;;2.85;0.88;;;1.60;99.90;;;;;;5002512;28;20479;-63
2022/03/03 05:26:54;;;;;;;4.90;1.30;;;1.60;99.90;;;;;;5001783;28;20050;-67
2022/03/03 05:29:21;;;;;;;7.97;1.33;;;1.60;99.90;;;;;;5003957;28;20679;-63
2022/03/03 05:31:48;;;;;;;7.43;0.93;;;1.70;99.90;;;;;;5005013;28;20073;-67
2022/03/03 05:34:15;;;;;;;2.70;1.35;;;1.70;99.90;;;;;;5002694;28;20133;-65
2022/03/03 05:36:42;;;;;;;9.70;1.92;;;1.70;99.90;;;;;;5004986;28;20054;-63
2022/03/03 05:39:09;;;;;;;3.50;1.10;;;1.70;99.90;;;;;;5004604;28;20097;-64
2022/03/03 05:41:36;;;;;;;5.72;1.20;;;1.70;99.90;;;;;;5004361;28;20452;-67
2022/03/03 05:44:11;;;;;;;8.73;1.23;;;1.80;99.90;;;;;;4314534;28;10001325;-63
2022/03/03 05:46:42;;;;;;;4.35;0.50;;;1.70;99.90;;;;;;3797337;28;10001774;-63
2022/03/03 05:49:10;;;;;;;;;;;1.80;99.90;;;;;;5003912;28;20042;-63
2022/03/03 05:51:37;;;;;;;2.17;1.02;;;1.80;99.90;;;;;;5004419;28;20032;-64
2022/03/03 05:54:04;;;;;;;10.23;1.08;;;1.80;99.90;;;;;;5000509;28;20046;-65
2022/03/03 05:56:37;;;;;;;5.80;1.17;;;1.80;99.90;;;;;;5004862;28;20094;-64
2022/03/03 05:59:07;;;;;;;5.35;1.25;;;1.80;99.90;;;;;;5002449;28;20050;-68
2022/03/03 06:01:38;;;;;;;4.15;1.10;;;1.80;99.90;;;;;;4992496;28;20070;-65
2022/03/03 06:04:07;;;;;;;4.57;0.85;;;1.80;99.90;;;;;;4980030;28;20332;-63
2022/03/03 06:06:37;;;;;;;2.78;0.65;;;1.80;99.90;;;;;;5004632;28;20531;-65
2022/03/03 06:09:14;;;;;;;4.05;0.88;;;1.80;99.90;;;;;;5003916;28;20397;-65
2022/03/03 06:11:49;;;;;;;3.20;0.85;;;1.80;99.90;;;;;;4996012;28;20054;-63
2022/03/03 06:14:23;;;;;;;3.78;1.95;;;1.80;99.90;;;;;;4998469;28;20080;-64
2022/03/03 06:16:50;;;;;;;5.40;1.02;;;1.80;99.90;;;;;;5003028;28;20069;-65
2022/03/03 06:19:20;;;;;;;5.82;2.08;;;1.80;99.90;;;;;;5004462;28;20089;-66
2022/03/03 06:21:47;;;;;;;8.27;0.90;;;1.90;99.90;;;;;;5002401;28;20418;-63
2022/03/03 06:24:14;;;;;;;5.85;1.25;;;1.90;99.90;;;;;;5003233;28;20144;-63
2022/03/03 06:26:41;;;;;;;3.35;0.75;;;1.90;99.90;;;;;;5003299;28;20046;-62
2022/03/03 06:29:08;;;;;;;4.40;0.60;;;1.90;99.90;;;;;;5004373;28;20099;-65
2022/03/03 06:31:35;;;;;;;2.35;0.70;;;1.90;99.90;;;;;;5002084;28;20127;-64
2022/03/03 06:34:01;;;;;;;3.83;0.95;;;2.00;99.90;;;;;;5003155;28;20073;-64
2022/03/03 06:36:28;;;;;;;4.15;0.80;;;2.00;99.90;;;;;;5002071;28;20046;-64
2022/03/03 06:38:55;;;;;;;3.40;0.68;;;2.00;99.90;;;;;;5004985;28;20116;-62
2022/03/03 06:41:23;;;;;;;8.40;1.58;;;2.00;99.90;;;;;;5001992;28;20077;-64
2022/03/03 06:43:50;;;;;;;4.88;0.85;;;2.00;99.90;;;;;;5003192;28;20077;-63
2022/03/03 06:46:18;;;;;;;4.57;1.25;;;2.10;99.90;;;;;;5000232;28;20044;-65
2022/03/03 06:48:46;;;;;;;4.80;1.20;;;2.10;99.90;;;;;;5003885;28;20413;-63
2022/03/03 06:51:20;;;;;;;4.65;1.08;;;2.10;99.90;;;;;;5002209;28;20046;-62
2022/03/03 06:53:55;;;;;;;5.53;1.55;;;2.10;99.90;;;;;;5003961;28;20058;-62
2022/03/03 06:56:25;;;;;;;5.78;1.00;;;2.10;99.90;;;;;;4996693;28;20399;-62
2022/03/03 06:58:53;;;;;;;;;;;2.20;99.90;;;;;;5002223;28;20159;-64
2022/03/03 07:01:22;;;;;;;2.83;1.00;;;2.20;99.90;;;;;;5003357;28;19929;-64
2022/03/03 07:03:50;;;;;;;4.32;0.57;;;2.20;99.90;;;;;;5002020;28;20057;-65
2022/03/03 07:06:18;;;;;;;6.53;0.75;;;2.20;99.90;;;;;;5001532;28;20077;-63
2022/03/03 07:08:46;;;;;;;2.40;0.60;;;2.20;99.90;;;;;;5002977;28;20050;-64
2022/03/03 07:11:14;;;;;;;4.65;1.00;;;2.20;99.90;;;;;;5002867;28;20050;-64
2022/03/03 07:13:44;;;;;;;4.93;1.15;;;2.30;99.90;;;;;;5001596;28;20077;-65
2022/03/03 07:16:22;;;;;;;6.75;2.03;;;2.30;99.90;;;;;;5005904;28;20579;-67
2022/03/03 07:18:52;;;;;;;3.22;0.52;;;2.30;99.90;;;;;;5005467;28;20104;-63
2022/03/03 07:21:24;;;;;;;2.08;1.00;;;2.40;99.90;;;;;;5007597;28;20054;-63
2022/03/03 07:24:26;;;;;;;3.20;1.20;;;2.30;99.90;;;;;;5004354;28;20161;-65
2022/03/03 07:27:04;;;;;;;8.57;1.00;;;2.40;99.90;;;;;;4982361;28;20046;-63
2022/03/03 07:29:33;;;;;;;6.45;2.15;;;2.40;99.90;;;;;;4987607;28;20077;-65
2022/03/03 07:32:06;;;;;;;6.65;1.00;;;2.40;99.90;;;;;;4983315;28;20145;-67
2022/03/03 07:34:36;;;;;;;7.47;1.60;;;2.40;99.90;;;;;;4986698;28;20562;-64
2022/03/03 07:37:10;;;;;;;3.78;0.80;;;2.40;99.90;;;;;;4994540;28;20718;-63
2022/03/03 07:39:43;;;;;;;4.32;1.23;;;2.50;99.90;;;;;;5007459;28;20090;-65
2022/03/03 07:42:18;;;;;;;5.75;1.48;;;2.50;99.90;;;;;;5002591;28;20096;-66
2022/03/03 07:44:46;;;;;;;4.25;1.90;;;2.50;99.90;;;;;;4997557;28;20046;-63
2022/03/03 07:47:22;;;;;;;2.20;1.20;;;2.50;99.90;;;;;;3295115;28;10022134;-65
2022/03/03 07:49:50;;;;;;;2.78;1.25;;;2.60;99.90;;;;;;2234385;28;10001884;-67
2022/03/03 07:52:17;;;;;;;4.50;0.85;;;2.60;99.90;;;;;;5003620;28;20069;-64
2022/03/03 07:54:43;;;;;;;7.32;1.83;;;2.60;99.90;;;;;;5006638;28;20566;-65
2022/03/03 07:57:15;;;;;;;3.47;1.40;;;2.60;99.90;;;;;;5005673;28;20061;-67
2022/03/03 07:59:48;;;;;;;3.03;1.10;;;2.60;99.90;;;;;;5005113;28;20404;-63
2022/03/03 08:02:22;;;;;;;6.05;1.27;;;2.70;99.90;;;;;;5004384;28;20180;-64
2022/03/03 08:04:51;;;;;;;6.75;1.58;;;2.70;99.90;;;;;;5007469;28;20054;-64
2022/03/03 08:07:19;;;;;;;3.05;0.82;;;2.70;99.90;;;;;;5005467;28;20532;-64
2022/03/03 08:09:59;;;;;;;1.70;0.70;;;2.70;99.90;;;;;;5007040;28;20128;-70
2022/03/03 08:12:30;;;;;;;1.45;0.52;;;2.80;99.90;;;;;;5003177;28;20060;-66
2022/03/03 08:14:58;;;;;;;4.65;0.82;;;2.70;99.90;;;;;;5007411;28;20533;-64
2022/03/03 08:17:26;;;;;;;3.30;0.77;;;2.80;99.90;;;;;;5003873;28;20062;-62
2022/03/03 08:19:55;;;;;;;2.97;1.10;;;2.80;99.90;;;;;;5007830;28;20085;-64
2022/03/03 08:22:24;;;;;;;2.22;1.02;;;2.80;99.90;;;;;;5002666;28;20473;-70
2022/03/03 08:24:55;;;;;;;2.40;0.65;;;2.80;99.90;;;;;;5006995;28;20888;-64
2022/03/03 08:27:24;;;;;;;3.92;0.82;;;2.80;99.90;;;;;;5004230;28;20148;-63
2022/03/03 08:29:53;;;;;;;3.15;0.90;;;2.90;99.90;;;;;;5006466;28;20521;-67
2022/03/03 08:32:22;;;;;;;8.13;0.90;;;2.90;99.90;;;;;;4998879;28;20054;-65
2022/03/03 08:35:15;;;;;;;5.07;0.88;;;2.90;99.90;;;;;;4992576;28;20172;-63
2022/03/03 08:37:53;;;;;;;4.25;1.20;;;2.90;99.90;;;;;;5005752;28;20526;-65
2022/03/03 08:40:22;;;;;;;6.75;0.88;;;2.90;99.90;;;;;;4984328;28;20159;-68
2022/03/03 08:42:56;;;;;;;1.55;0.52;;;2.90;99.90;;;;;;4985925;28;20046;-63
2022/03/03 08:45:24;;;;;;;4.90;0.93;;;3.00;99.90;;;;;;4984651;28;20463;-64
2022/03/03 08:48:04;;;;;;;3.80;0.88;;;3.00;99.90;;;;;;4985695;28;20046;-63
2022/03/03 08:50:33;;;;;;;5.25;1.08;;;3.00;99.90;;;;;;4983117;28;20058;-64
2022/03/03 08:53:03;;;;;;;5.22;0.98;;;3.00;99.90;;;;;;4985567;28;20096;-67
2022/03/03 08:55:31;;;;;;;3.42;0.50;;;3.10;99.90;;;;;;4985134;28;20046;-65
2022/03/03 08:57:58;;;;;;;10.43;1.23;;;3.10;99.90;;;;;;4986016;28;20132;-64
2022/03/03 09:00:26;;;;;;;9.38;1.48;;;3.10;99.90;;;;;;4982127;28;20054;-63
2022/03/03 09:02:53;;;;;;;7.45;1.38;;;3.00;99.90;;;;;;4985370;28;20089;-63
2022/03/03 09:05:21;;;;;;;6.93;0.82;;;3.00;99.90;;;;;;4986077;28;20456;-63
2022/03/03 09:07:48;;;;;;;6.18;1.00;;;3.00;99.90;;;;;;4986104;28;20073;-65
2022/03/03 09:10:15;;;;;;;5.20;0.98;;;3.10;99.90;;;;;;4983219;28;20167;-67
2022/03/03 09:12:43;;;;;;;7.38;0.73;;;3.10;99.90;;;;;;4985076;28;20130;-62
2022/03/03 09:15:11;;;;;;;1.60;0.60;;;3.10;99.90;;;;;;4985701;28;20070;-65
2022/03/03 09:17:40;;;;;;;2.85;1.25;;;3.10;99.90;;;;;;4985939;28;20472;-62
2022/03/03 09:20:11;;;;;;;4.28;1.67;;;3.10;99.90;;;;;;4983724;28;20070;-63
2022/03/03 09:22:39;;;;;;;5.50;2.08;;;3.20;99.90;;;;;;4984334;28;20167;-64
2022/03/03 09:25:06;;;;;;;9.27;1.25;;;3.10;99.90;;;;;;4986443;28;20053;-63
2022/03/03 09:27:33;;;;;;;4.63;1.05;;;3.10;99.90;;;;;;4983003;28;20484;-63
2022/03/03 09:30:00;;;;;;;7.05;1.90;;;3.10;99.90;;;;;;4985035;28;20081;-65
2022/03/03 09:32:28;;;;;;;4.15;0.93;;;3.20;99.90;;;;;;5002879;28;20046;-62
2022/03/03 09:34:55;;;;;;;6.13;1.42;;;3.20;99.90;;;;;;5004178;28;20076;-66
2022/03/03 09:37:22;;;;;;;6.95;1.40;;;3.20;99.90;;;;;;5003461;28;20077;-65
2022/03/03 09:39:50;;;;;;;10.02;1.55;;;3.30;99.90;;;;;;5004100;28;20074;-65
2022/03/03 09:42:17;;;;;;;5.18;1.02;;;3.30;99.90;;;;;;5002457;28;20046;-63
2022/03/03 09:44:45;;;;;;;6.22;1.25;;;3.20;99.90;;;;;;5004697;28;20120;-62
2022/03/03 09:47:23;;;;;;;11.05;3.25;;;3.30;99.90;;;;;;3849168;28;10002090;-64
2022/03/03 09:49:50;;;;;;;10.48;1.35;;;3.30;99.90;;;;;;2404851;28;10002032;-64
2022/03/03 09:52:19;;;;;;;5.03;1.55;;;3.30;99.90;;;;;;4986148;28;20473;-63
2022/03/03 09:54:51;;;;;;;5.53;1.27;;;3.30;99.90;;;;;;5004529;28;20050;-63
2022/03/03 09:57:18;;;;;;;5.03;1.00;;;3.30;99.90;;;;;;5004618;28;20057;-62
2022/03/03 09:59:45;;;;;;;4.20;0.82;;;3.40;99.90;;;;;;5002633;28;20050;-65
2022/03/03 10:02:13;;;;;;;7.53;1.00;;;3.30;99.90;;;;;;5002729;28;20570;-63
2022/03/03 10:04:40;;;;;;;3.90;0.95;;;3.30;99.90;;;;;;4981464;28;20050;-64
2022/03/03 10:07:09;;;;;;;3.92;0.77;;;3.30;99.90;;;;;;4985661;28;20125;-63
2022/03/03 10:09:59;;;;;;;5.95;1.17;;;3.30;99.90;;;;;;4984086;28;20050;-64
2022/03/03 10:12:45;;;;;;;7.00;1.02;;;3.20;99.90;;;;;;4979365;28;20073;-68
2022/03/03 10:15:17;;;;;;;2.63;0.95;;;3.30;99.90;;;;;;4983681;28;20166;-64
2022/03/03 10:17:45;;;;;;;10.68;0.80;;;3.30;99.90;;;;;;4997725;28;20046;-65
2022/03/03 10:20:12;;;;;;;3.17;0.77;;;3.40;99.90;;;;;;5001526;28;20152;-64
2022/03/03 10:22:59;;;;;;;8.88;1.17;;;3.40;99.90;;;;;;4988592;28;20049;-63
2022/03/03 10:25:38;;;;;;;6.28;0.80;;;3.40;99.90;;;;;;5005040;28;20077;-65
2022/03/03 10:28:12;;;;;;;6.13;1.42;;;3.40;99.90;;;;;;4999534;28;20126;-63
2022/03/03 10:30:48;;;;;;;6.72;1.45;;;3.50;99.90;;;;;;5003028;28;20065;-64
2022/03/03 10:33:17;;;;;;;8.30;1.38;;;3.50;99.90;;;;;;5001840;28;20081;-61
2022/03/03 10:36:00;;;;;;;6.97;1.15;;;3.50;99.90;;;;;;5002051;28;20129;-65
2022/03/03 10:38:27;;;;;;;10.48;1.38;;;3.50;99.90;;;;;;5016060;28;20174;-67
2022/03/03 10:40:54;;;;;;;5.18;1.50;;;3.50;99.90;;;;;;5003781;28;20053;-62
2022/03/03 10:43:21;;;;;;;9.98;1.75;;;3.60;99.90;;;;;;5003585;28;20124;-63
2022/03/03 10:45:57;;;;;;;3.28;1.05;;;3.60;99.90;;;;;;5002545;28;20070;-66
2022/03/03 10:48:30;;;;;;;7.20;1.55;;;3.60;99.90;;;;;;5001551;28;20116;-64
2022/03/03 10:51:00;;;;;;;3.47;1.35;;;3.50;99.90;;;;;;5001978;28;20115;-65
2022/03/03 10:53:27;;;;;;;15.52;4.25;;;3.50;99.90;;;;;;5003403;28;20163;-68
2022/03/03 10:56:12;;;;;;;2.67;0.50;;;3.60;99.90;;;;;;5002745;28;20131;-63
2022/03/03 10:58:52;;;;;;;11.95;2.05;;;3.60;99.90;;;;;;4986132;28;20057;-63
2022/03/03 11:01:23;;;;;;;32.67;3.03;;;3.60;99.90;;;;;;4982481;28;20448;-62
2022/03/03 11:03:51;;;;;;;3.90;0.65;;;3.60;99.90;;;;;;4988147;28;20145;-65
2022/03/03 11:06:22;;;;;;;6.80;0.82;;;3.60;99.90;;;;;;4999154;28;20362;-68
2022/03/03 11:08:51;;;;;;;6.18;0.90;;;3.60;99.90;;;;;;5004018;28;20046;-63
2022/03/03 11:11:19;;;;;;;2.42;0.60;;;3.70;99.90;;;;;;4991754;28;20185;-62
2022/03/03 11:13:49;;;;;;;4.25;1.48;;;3.70;99.90;;;;;;4982046;28;20141;-66
2022/03/03 11:16:21;;;;;;;5.85;1.10;;;3.70;99.90;;;;;;4980747;28;20133;-62
2022/03/03 11:18:48;;;;;;;6.53;1.13;;;3.80;99.90;;;;;;4983487;28;20476;-62
2022/03/03 11:21:16;;;;;;;12.35;1.00;;;3.80;99.90;;;;;;4983861;28;20042;-62
2022/03/03 11:23:52;;;;;;;8.35;1.42;;;3.70;99.90;;;;;;4984002;28;20058;-64
2022/03/03 11:26:27;;;;;;;4.63;0.85;;;3.70;99.90;;;;;;4981821;28;20050;-66
2022/03/03 11:29:02;;;;;;;3.65;0.70;;;3.70;99.90;;;;;;4981113;28;20070;-63
2022/03/03 11:31:32;;;;;;;3.38;0.95;;;3.60;99.90;;;;;;4984149;28;20090;-62
2022/03/03 11:34:38;;;;;;;2.38;0.40;;;3.60;99.90;;;;;;4981155;28;20050;-63
2022/03/03 11:37:23;;;;;;;2.85;0.88;;;3.60;99.90;;;;;;4983050;28;20054;-63
2022/03/03 11:40:01;;;;;;;7.53;0.65;;;3.60;99.90;;;;;;4998145;28;20081;-62
2022/03/03 11:42:53;;;;;;;12.85;2.72;;;3.60;99.90;;;;;;4996636;28;20054;-62
2022/03/03 11:45:32;;;;;;;2.65;1.05;;;3.60;99.90;;;;;;4943789;28;21339;-64
2022/03/03 11:48:14;;;;;;;3.20;1.10;;;3.60;99.90;;;;;;2371608;28;10024492;-64
2022/03/03 11:50:43;;;;;;;9.32;1.40;;;3.60;99.90;;;;;;3955329;28;10001435;-63
2022/03/03 11:53:09;;;;;;;7.28;0.98;;;3.70;99.90;;;;;;4993422;28;20066;-62
2022/03/03 11:55:38;;;;;;;4.72;1.35;;;3.70;99.90;;;;;;4982968;28;20050;-64
2022/03/03 11:58:31;;;;;;;7.53;1.38;;;3.70;99.90;;;;;;4980089;28;20146;-64
2022/03/03 12:00:58;;;;;;;9.70;0.85;;;3.70;99.90;;;;;;4983929;28;20054;-62
2022/03/03 12:03:26;;;;;;;8.63;1.45;;;3.70;99.90;;;;;;4985889;28;20074;-62
2022/03/03 12:06:04;;;;;;;6.07;1.02;;;3.70;99.90;;;;;;4985647;28;20050;-63
2022/03/03 12:08:34;;;;;;;5.57;2.17;;;3.80;99.90;;;;;;5004388;28;20132;-64
2022/03/03 12:11:13;;;;;;;3.50;1.63;;;3.80;99.90;;;;;;5006416;28;20054;-67
2022/03/03 12:13:41;;;;;;;1.85;1.02;;;3.70;99.90;;;;;;5005009;28;21276;-65
2022/03/03 12:16:45;;;;;;;4.35;2.08;;;3.70;99.90;;;;;;5002960;28;20042;-62
2022/03/03 12:19:13;;;;;;;5.60;1.45;;;3.70;99.90;;;;;;4981895;28;20501;-62
2022/03/03 12:21:45;;;;;;;2.83;0.65;;;3.70;99.90;;;;;;4989560;28;20116;-69
2022/03/03 12:24:12;;;;;;;7.60;1.63;;;3.60;99.90;;;;;;5001410;28;20061;-71
2022/03/03 12:26:54;;;;;;;3.53;1.45;;;3.70;99.90;;;;;;5006033;28;20768;-63
2022/03/03 12:29:30;;;;;;;8.20;1.40;;;3.70;99.90;;;;;;4994532;28;20412;-62
2022/03/03 12:32:01;;;;;;;7.28;1.65;;;3.70;99.90;;;;;;4983844;28;20350;-62
2022/03/03 12:34:32;;;;;;;6.78;0.90;;;3.80;99.90;;;;;;5015621;28;20070;-63
2022/03/03 12:36:59;;;;;;;9.50;1.40;;;3.80;99.90;;;;;;4985297;28;20056;-62
2022/03/03 12:39:26;;;;;;;5.65;0.90;;;3.80;99.90;;;;;;4986478;28;20116;-63
2022/03/03 12:41:56;;;;;;;9.02;2.03;;;3.80;99.90;;;;;;4985290;28;20085;-64
2022/03/03 12:44:23;;;;;;;6.60;1.08;;;3.80;99.90;;;;;;4984057;28;20070;-63
2022/03/03 12:46:51;;;;;;;3.00;0.52;;;3.80;99.90;;;;;;4987007;28;20732;-65
2022/03/03 12:49:22;;;;;;;4.72;0.85;;;3.70;99.90;;;;;;4987525;28;20047;-63
2022/03/03 12:51:49;;;;;;;5.68;0.95;;;3.80;99.90;;;;;;4985169;28;20050;-62
2022/03/03 12:54:18;;;;;;;11.73;1.70;;;3.70;99.90;;;;;;4982656;28;20061;-64
2022/03/03 12:56:58;;;;;;;7.53;2.50;;;3.60;99.90;;;;;;4985100;28;20088;-67
2022/03/03 12:59:25;;;;;;;6.40;1.58;;;3.70;99.90;;;;;;4985746;28;20051;-63
2022/03/03 13:01:57;;;;;;;10.60;2.00;;;3.80;99.90;;;;;;4985121;28;20692;-62
2022/03/03 13:04:24;;;;;;;6.55;1.05;;;3.80;99.90;;;;;;4982355;28;20073;-62
2022/03/03 13:07:10;;;;;;;3.45;1.17;;;3.80;99.90;;;;;;4986091;28;20062;-63
2022/03/03 13:09:50;;;;;;;8.88;2.10;;;3.80;99.90;;;;;;4984052;28;20100;-65